Time;durP1;ratioP1;P1;durP2;ratioP2;P2;SDS_P1;SDS_P2;PMS_P1;PMS_P2;Temp;Humidity;BMP_temperature;BMP_pressure;BME280_temperature;BME280_humidity;BME280_pressure;Samples;Min_cycle;Max_cycle;Signal;HPM_P1;HPM_P2
2023/12/31 00:00:17;;;;;;;3.77;3.10;;;7.60;99.90;;;;;;5019271;28;20529;-87
2023/12/31 00:02:45;;;;;;;5.00;2.90;;;7.60;99.90;;;;;;5019387;28;20513;-87
2023/12/31 00:05:15;;;;;;;6.80;3.00;;;7.60;99.90;;;;;;5018908;28;20569;-87
2023/12/31 00:07:43;;;;;;;4.17;3.20;;;7.60;99.90;;;;;;5020534;28;20517;-87
2023/12/31 00:10:11;;;;;;;5.13;2.70;;;7.60;99.90;;;;;;5020068;28;20497;-87
2023/12/31 00:12:40;;;;;;;4.47;3.17;;;7.60;99.90;;;;;;5021739;28;20460;-87
2023/12/31 00:15:08;;;;;;;6.00;3.10;;;7.70;99.90;;;;;;5020114;28;20450;-87
2023/12/31 00:17:37;;;;;;;5.57;2.93;;;7.70;99.90;;;;;;5020483;28;20463;-87
2023/12/31 00:20:07;;;;;;;5.90;3.47;;;7.70;99.90;;;;;;5018146;28;20476;-87
2023/12/31 00:22:37;;;;;;;5.30;3.37;;;7.70;99.90;;;;;;5016220;28;20461;-87
2023/12/31 00:25:06;;;;;;;4.60;3.33;;;7.70;99.90;;;;;;5015952;28;20476;-87
2023/12/31 00:27:34;;;;;;;5.30;3.33;;;7.70;99.90;;;;;;5016268;28;20975;-87
2023/12/31 00:30:03;;;;;;;7.23;3.63;;;7.70;99.90;;;;;;5016117;28;20452;-87
2023/12/31 00:32:31;;;;;;;6.10;3.00;;;7.70;99.90;;;;;;5015766;28;20481;-87
2023/12/31 00:35:01;;;;;;;7.83;3.80;;;7.70;99.90;;;;;;5015903;28;20448;-87
2023/12/31 00:37:29;;;;;;;4.00;2.60;;;7.70;99.90;;;;;;5016958;28;20476;-87
2023/12/31 00:39:59;;;;;;;6.03;3.00;;;7.70;99.90;;;;;;5015388;28;20459;-87
2023/12/31 00:42:28;;;;;;;5.63;2.80;;;7.70;99.90;;;;;;5015770;28;20462;-87
2023/12/31 00:44:58;;;;;;;7.47;3.50;;;7.70;99.90;;;;;;5015909;28;20468;-87
2023/12/31 00:47:26;;;;;;;5.03;3.10;;;7.70;99.90;;;;;;5015584;28;20452;-87
2023/12/31 00:49:55;;;;;;;4.23;3.10;;;7.70;99.90;;;;;;5015475;28;20452;-87
2023/12/31 00:52:23;;;;;;;4.50;2.83;;;7.70;99.90;;;;;;5015524;28;20452;-87
2023/12/31 00:54:52;;;;;;;4.33;2.90;;;7.70;99.90;;;;;;5015437;28;20467;-87
2023/12/31 00:57:22;;;;;;;8.50;3.70;;;7.70;99.90;;;;;;5015522;28;20448;-87
2023/12/31 00:59:51;;;;;;;5.63;3.40;;;7.70;99.90;;;;;;5015349;28;20881;-87
2023/12/31 01:02:19;;;;;;;5.43;3.43;;;7.70;99.90;;;;;;5015114;28;20444;-87
2023/12/31 01:04:48;;;;;;;4.90;2.97;;;7.70;99.90;;;;;;5015156;28;20883;-87
2023/12/31 01:07:17;;;;;;;5.00;3.20;;;7.70;99.90;;;;;;5015116;28;20459;-87
2023/12/31 01:09:45;;;;;;;6.47;3.10;;;7.70;99.90;;;;;;5015029;28;20456;-87
2023/12/31 01:12:14;;;;;;;6.93;3.10;;;7.70;99.90;;;;;;5016320;28;20462;-87
2023/12/31 01:14:44;;;;;;;6.27;2.90;;;7.70;99.90;;;;;;5015549;28;20482;-87
2023/12/31 01:17:12;;;;;;;5.23;3.20;;;7.70;99.90;;;;;;5015368;28;20535;-87
2023/12/31 01:19:41;;;;;;;4.80;3.10;;;7.70;99.90;;;;;;5015098;28;20447;-87
2023/12/31 01:22:10;;;;;;;3.83;2.70;;;7.70;99.90;;;;;;5015212;28;20478;-87
2023/12/31 01:24:38;;;;;;;4.80;3.10;;;7.70;99.90;;;;;;5015272;28;20475;-87
2023/12/31 01:27:06;;;;;;;3.30;2.80;;;7.70;99.90;;;;;;5014864;28;20505;-87
2023/12/31 01:29:38;;;;;;;5.73;3.50;;;7.80;99.90;;;;;;5014905;28;20440;-87
2023/12/31 01:32:08;;;;;;;7.57;3.10;;;7.80;99.90;;;;;;5015949;28;20905;-87
2023/12/31 01:34:36;;;;;;;5.10;3.00;;;7.80;99.90;;;;;;5014680;28;20522;-87
2023/12/31 01:37:05;;;;;;;6.63;3.60;;;7.80;99.90;;;;;;5014400;28;20456;-87
2023/12/31 01:39:34;;;;;;;5.57;2.97;;;7.80;99.90;;;;;;5014650;28;20994;-87
2023/12/31 01:42:02;;;;;;;3.80;2.80;;;7.80;99.90;;;;;;5014309;28;20439;-87
2023/12/31 01:44:31;;;;;;;3.67;2.63;;;7.80;99.90;;;;;;5014177;28;20563;-87
2023/12/31 01:46:59;;;;;;;4.27;3.57;;;7.80;99.90;;;;;;5014315;28;20471;-87
2023/12/31 01:49:30;;;;;;;4.67;2.90;;;7.80;99.90;;;;;;5014116;28;20540;-86
2023/12/31 01:51:59;;;;;;;3.60;3.00;;;7.80;99.90;;;;;;5015623;28;20427;-87
2023/12/31 01:54:28;;;;;;;4.83;3.20;;;7.80;99.90;;;;;;5014086;28;20477;-87
2023/12/31 01:56:57;;;;;;;4.30;3.40;;;7.80;99.90;;;;;;5013943;28;20447;-87
2023/12/31 01:59:26;;;;;;;4.17;2.73;;;7.80;99.90;;;;;;5013867;28;20444;-87
2023/12/31 02:01:55;;;;;;;5.33;3.30;;;7.80;99.90;;;;;;5013852;28;20455;-87
2023/12/31 02:04:34;;;;;;;4.80;2.37;;;7.80;99.90;;;;;;5013845;28;20475;-87
2023/12/31 02:07:03;;;;;;;5.70;2.83;;;7.90;99.90;;;;;;5013742;28;20463;-87
2023/12/31 02:09:31;;;;;;;4.83;2.80;;;7.90;99.90;;;;;;5014070;28;20451;-87
2023/12/31 02:12:00;;;;;;;4.23;2.53;;;7.80;99.90;;;;;;5013474;28;20837;-87
2023/12/31 02:14:28;;;;;;;4.20;2.60;;;7.90;99.90;;;;;;5013488;28;20467;-87
2023/12/31 02:16:56;;;;;;;5.37;2.70;;;7.80;99.90;;;;;;5013382;28;20494;-87
2023/12/31 02:19:26;;;;;;;2.53;2.20;;;7.90;99.90;;;;;;5013328;28;20454;-87
2023/12/31 02:21:55;;;;;;;4.43;3.20;;;7.90;99.90;;;;;;5018794;28;20533;-87
2023/12/31 02:24:31;;;;;;;5.80;2.10;;;7.90;99.90;;;;;;5014523;28;20469;-87
2023/12/31 02:27:01;;;;;;;3.30;2.00;;;7.90;99.90;;;;;;5014584;28;20480;-87
2023/12/31 02:29:30;;;;;;;4.90;2.30;;;7.80;99.90;;;;;;5014130;28;20538;-87
2023/12/31 02:31:58;;;;;;;5.33;2.70;;;7.80;99.90;;;;;;5014423;28;20459;-86
2023/12/31 02:34:28;;;;;;;4.30;2.53;;;7.80;99.90;;;;;;5014334;28;20471;-87
2023/12/31 02:36:57;;;;;;;4.43;1.97;;;7.80;99.90;;;;;;5014357;28;20456;-86
2023/12/31 02:39:26;;;;;;;3.83;2.37;;;7.80;99.90;;;;;;5015936;28;20957;-87
2023/12/31 02:41:54;;;;;;;5.33;2.70;;;7.80;99.90;;;;;;5014236;28;20455;-87
2023/12/31 02:44:24;;;;;;;3.33;2.20;;;7.80;99.90;;;;;;5014395;28;20529;-87
2023/12/31 02:46:53;;;;;;;4.43;2.73;;;7.80;99.90;;;;;;5013830;28;20472;-87
2023/12/31 02:49:21;;;;;;;3.53;2.57;;;7.80;99.90;;;;;;5014166;28;20455;-87
2023/12/31 02:51:50;;;;;;;4.07;2.23;;;7.80;99.90;;;;;;5013936;28;20462;-87
2023/12/31 02:54:18;;;;;;;3.27;1.83;;;7.80;99.90;;;;;;5013856;28;20481;-87
2023/12/31 02:56:46;;;;;;;3.40;2.13;;;7.80;99.90;;;;;;5013784;28;21016;-87
2023/12/31 02:59:14;;;;;;;2.90;2.07;;;7.80;99.90;;;;;;5013424;28;20471;-87
2023/12/31 03:01:45;;;;;;;4.77;2.20;;;7.80;99.90;;;;;;5017412;28;20542;-87
2023/12/31 03:04:14;;;;;;;4.53;2.10;;;7.80;99.90;;;;;;5020990;28;20479;-87
2023/12/31 03:06:42;;;;;;;4.30;2.87;;;7.80;99.90;;;;;;5020760;28;20514;-87
2023/12/31 03:09:10;;;;;;;4.23;2.20;;;7.80;99.90;;;;;;5020574;28;20873;-87
2023/12/31 03:11:39;;;;;;;2.90;2.33;;;7.80;99.90;;;;;;5020426;28;20467;-87
2023/12/31 03:14:07;;;;;;;2.40;2.00;;;7.80;99.90;;;;;;5020094;28;20467;-87
2023/12/31 03:16:35;;;;;;;2.83;2.23;;;7.80;99.90;;;;;;5020715;28;20881;-87
2023/12/31 03:19:05;;;;;;;4.70;2.30;;;7.80;99.90;;;;;;5022139;28;20443;-87
2023/12/31 03:21:33;;;;;;;3.00;2.40;;;7.80;99.90;;;;;;5021162;28;20474;-87
2023/12/31 03:24:01;;;;;;;3.07;2.40;;;7.80;99.90;;;;;;5019992;28;20504;-87
2023/12/31 03:26:30;;;;;;;4.97;2.27;;;7.80;99.90;;;;;;5019424;28;20474;-87
2023/12/31 03:28:58;;;;;;;4.00;2.30;;;7.80;99.90;;;;;;5019893;28;20452;-87
2023/12/31 03:31:26;;;;;;;4.00;2.47;;;7.80;99.90;;;;;;5028113;28;20462;-87
2023/12/31 03:33:55;;;;;;;3.40;2.50;;;7.80;99.90;;;;;;5025757;28;20529;-87
2023/12/31 03:36:25;;;;;;;2.97;2.10;;;7.80;99.90;;;;;;5019811;28;20451;-87
2023/12/31 03:38:54;;;;;;;5.50;2.67;;;7.80;99.90;;;;;;5019454;28;20451;-87
2023/12/31 03:41:22;;;;;;;5.03;2.60;;;7.80;99.90;;;;;;5019345;28;20451;-87
2023/12/31 03:43:51;;;;;;;3.73;2.10;;;7.80;99.90;;;;;;5019134;28;20471;-87
2023/12/31 03:46:19;;;;;;;4.13;2.80;;;7.70;99.90;;;;;;5019316;28;20893;-87
2023/12/31 03:48:47;;;;;;;5.17;2.60;;;7.80;99.90;;;;;;5019569;28;20447;-87
2023/12/31 03:51:16;;;;;;;4.37;2.30;;;7.70;99.90;;;;;;5020565;28;20445;-87
2023/12/31 03:53:46;;;;;;;4.00;2.27;;;7.70;99.90;;;;;;5019245;28;20503;-87
2023/12/31 03:56:14;;;;;;;4.33;2.50;;;7.70;99.90;;;;;;5019052;28;20831;-87
2023/12/31 03:58:43;;;;;;;5.83;2.40;;;7.70;99.90;;;;;;5019324;28;20448;-87
2023/12/31 04:01:11;;;;;;;3.70;2.53;;;7.70;99.90;;;;;;5020515;28;20803;-87
2023/12/31 04:03:40;;;;;;;4.10;2.40;;;7.70;99.90;;;;;;5019252;28;20482;-87
2023/12/31 04:06:09;;;;;;;5.87;2.63;;;7.70;99.90;;;;;;5020575;28;20932;-87
2023/12/31 04:08:37;;;;;;;3.93;2.30;;;7.70;99.90;;;;;;5019038;28;20486;-87
2023/12/31 04:11:08;;;;;;;5.63;3.17;;;7.70;99.90;;;;;;5019041;28;20863;-87
2023/12/31 04:13:37;;;;;;;7.40;5.30;;;7.60;99.90;;;;;;5015902;28;20920;-87
2023/12/31 04:16:08;;;;;;;4.77;3.90;;;7.60;99.90;;;;;;5017037;28;20959;-87
2023/12/31 04:18:37;;;;;;;4.07;2.80;;;7.60;99.90;;;;;;5015748;28;20501;-87
2023/12/31 04:21:05;;;;;;;4.10;2.70;;;7.60;99.90;;;;;;5015615;28;20510;-87
2023/12/31 04:23:34;;;;;;;3.87;3.00;;;7.50;99.90;;;;;;5015650;28;20470;-87
2023/12/31 04:26:02;;;;;;;6.60;5.10;;;7.50;99.90;;;;;;5015675;28;20837;-87
2023/12/31 04:28:31;;;;;;;4.43;2.90;;;7.50;99.90;;;;;;5015796;28;20565;-87
2023/12/31 04:31:02;;;;;;;5.50;3.43;;;7.50;99.90;;;;;;5015570;28;21003;-87
2023/12/31 04:33:30;;;;;;;7.37;4.40;;;7.50;99.90;;;;;;5015473;28;20479;-87
2023/12/31 04:36:03;;;;;;;4.93;3.43;;;7.50;99.90;;;;;;5015502;28;20833;-87
2023/12/31 04:38:32;;;;;;;5.03;2.90;;;7.40;99.90;;;;;;5015385;28;20454;-87
2023/12/31 04:41:00;;;;;;;4.47;2.60;;;7.40;99.90;;;;;;5015091;28;20463;-87
2023/12/31 04:43:28;;;;;;;5.13;3.17;;;7.40;99.90;;;;;;5017796;28;20479;-87
2023/12/31 04:45:58;;;;;;;4.50;2.77;;;7.30;99.90;;;;;;5015207;28;20450;-87
2023/12/31 04:48:27;;;;;;;6.60;2.80;;;7.30;99.90;;;;;;5014907;28;20499;-87
2023/12/31 04:50:55;;;;;;;3.67;2.67;;;7.30;99.90;;;;;;5015245;28;20457;-87
2023/12/31 04:53:23;;;;;;;3.10;2.40;;;7.30;99.90;;;;;;5014818;28;20554;-87
2023/12/31 04:55:52;;;;;;;5.70;2.57;;;7.30;99.90;;;;;;5014778;28;20456;-87
2023/12/31 04:58:21;;;;;;;3.30;2.50;;;7.20;99.90;;;;;;5014659;28;20475;-87
2023/12/31 05:00:50;;;;;;;3.97;2.63;;;7.20;99.90;;;;;;5014650;28;20448;-87
2023/12/31 05:03:19;;;;;;;4.07;2.73;;;7.20;99.90;;;;;;5014429;28;20485;-87
2023/12/31 05:05:48;;;;;;;7.07;3.10;;;7.20;99.90;;;;;;5014652;28;20452;-87
2023/12/31 05:08:16;;;;;;;5.10;2.70;;;7.20;99.90;;;;;;5014642;28;20544;-87
2023/12/31 05:10:44;;;;;;;3.37;2.60;;;7.20;99.90;;;;;;5014384;28;20833;-87
2023/12/31 05:13:12;;;;;;;8.30;3.30;;;7.10;99.90;;;;;;5015461;28;20541;-87
2023/12/31 05:15:41;;;;;;;4.87;2.67;;;7.10;99.90;;;;;;5014215;28;20463;-87
2023/12/31 05:18:09;;;;;;;3.57;2.70;;;7.10;99.90;;;;;;5014483;28;20894;-87
2023/12/31 05:20:39;;;;;;;4.40;2.90;;;7.10;99.90;;;;;;5014056;28;20998;-87
2023/12/31 05:23:07;;;;;;;5.03;3.10;;;7.10;99.90;;;;;;5014077;28;20487;-87
2023/12/31 05:25:35;;;;;;;5.10;2.73;;;7.10;99.90;;;;;;5014027;28;20791;-87
2023/12/31 05:28:04;;;;;;;3.80;2.80;;;7.10;99.90;;;;;;5013833;28;20522;-88
2023/12/31 05:30:33;;;;;;;4.93;3.40;;;7.00;99.90;;;;;;5014724;28;20456;-87
2023/12/31 05:33:01;;;;;;;4.90;3.17;;;7.00;99.90;;;;;;5014706;28;20471;-87
2023/12/31 05:35:30;;;;;;;5.27;3.53;;;7.00;99.90;;;;;;5015331;28;20458;-87
2023/12/31 05:37:59;;;;;;;5.70;4.00;;;7.00;99.90;;;;;;5014273;28;20455;-87
2023/12/31 05:40:28;;;;;;;7.13;3.53;;;7.00;99.90;;;;;;5014093;28;20482;-87
2023/12/31 05:42:56;;;;;;;5.50;2.97;;;6.90;99.90;;;;;;5014049;28;20546;-87
2023/12/31 05:45:24;;;;;;;7.00;3.70;;;6.90;99.90;;;;;;5014102;28;20450;-87
2023/12/31 05:47:53;;;;;;;4.70;3.37;;;6.90;99.90;;;;;;5014720;28;20507;-88
2023/12/31 05:50:21;;;;;;;4.70;3.43;;;6.90;99.90;;;;;;5016326;28;20455;-87
2023/12/31 05:52:50;;;;;;;6.23;3.70;;;6.90;99.90;;;;;;5016305;28;20555;-87
2023/12/31 05:55:19;;;;;;;4.43;3.53;;;6.90;99.90;;;;;;5014259;28;20898;-87
2023/12/31 05:57:47;;;;;;;3.43;3.00;;;6.90;99.90;;;;;;5014438;28;20455;-87
2023/12/31 06:00:16;;;;;;;3.40;3.10;;;6.90;99.90;;;;;;5014308;28;20463;-87
2023/12/31 06:02:44;;;;;;;4.33;3.30;;;6.90;99.90;;;;;;5014058;28;20454;-87
2023/12/31 06:05:13;;;;;;;4.60;3.07;;;6.80;99.90;;;;;;5014046;28;20454;-87
2023/12/31 06:07:41;;;;;;;5.13;3.50;;;6.90;99.90;;;;;;5015151;28;20932;-87
2023/12/31 06:10:10;;;;;;;5.70;3.40;;;6.90;99.90;;;;;;5013886;28;20442;-87
2023/12/31 06:12:40;;;;;;;5.03;3.80;;;6.90;99.90;;;;;;5013754;28;20797;-88
2023/12/31 06:15:11;;;;;;;4.27;3.60;;;6.80;99.90;;;;;;5013841;28;20448;-88
2023/12/31 06:17:39;;;;;;;4.90;4.30;;;6.80;99.90;;;;;;5015024;28;20424;-87
2023/12/31 06:20:09;;;;;;;4.60;3.30;;;6.80;99.90;;;;;;5013795;28;20448;-87
2023/12/31 06:22:37;;;;;;;3.83;3.40;;;6.80;99.90;;;;;;5013526;28;20480;-87
2023/12/31 06:25:07;;;;;;;5.37;3.60;;;6.80;99.90;;;;;;5013785;28;20451;-87
2023/12/31 06:27:37;;;;;;;5.03;3.47;;;6.80;99.90;;;;;;5015495;28;20955;-87
2023/12/31 06:30:08;;;;;;;5.80;4.00;;;6.80;99.90;;;;;;5013832;28;20980;-87
2023/12/31 06:32:36;;;;;;;4.93;3.87;;;6.80;99.90;;;;;;5014392;28;20536;-87
2023/12/31 06:35:06;;;;;;;5.83;4.17;;;6.80;99.90;;;;;;5013471;28;20485;-87
2023/12/31 06:37:34;;;;;;;5.50;4.07;;;6.80;99.90;;;;;;5013483;28;20917;-87
2023/12/31 06:40:03;;;;;;;4.17;3.67;;;6.80;99.90;;;;;;5013494;28;20442;-87
2023/12/31 06:42:31;;;;;;;4.97;4.10;;;6.80;99.90;;;;;;5015204;28;20439;-87
2023/12/31 06:45:00;;;;;;;7.17;3.70;;;6.80;99.90;;;;;;5013334;28;21028;-87
2023/12/31 06:47:29;;;;;;;4.63;3.80;;;6.80;99.90;;;;;;5013525;28;20820;-87
2023/12/31 06:49:58;;;;;;;5.10;4.60;;;6.80;99.90;;;;;;5013590;28;20885;-87
2023/12/31 06:52:26;;;;;;;3.93;3.63;;;6.80;99.90;;;;;;5013421;28;20456;-87
2023/12/31 06:54:55;;;;;;;4.37;3.97;;;6.80;99.90;;;;;;5013193;28;20475;-87
2023/12/31 06:57:23;;;;;;;4.23;3.83;;;6.90;99.90;;;;;;5013347;28;20445;-87
2023/12/31 06:59:51;;;;;;;4.00;3.60;;;6.90;99.90;;;;;;5013189;28;20456;-87
2023/12/31 07:02:20;;;;;;;4.33;3.93;;;6.80;99.90;;;;;;5012913;28;20454;-88
2023/12/31 07:04:50;;;;;;;4.97;4.00;;;6.90;99.90;;;;;;5012943;28;20571;-88
2023/12/31 07:07:19;;;;;;;4.87;4.20;;;6.90;99.90;;;;;;5012858;28;20446;-88
2023/12/31 07:09:47;;;;;;;4.60;4.20;;;6.90;99.90;;;;;;5012811;28;20850;-88
2023/12/31 07:12:16;;;;;;;5.63;4.60;;;6.90;99.90;;;;;;5012690;28;20505;-88
2023/12/31 07:14:44;;;;;;;4.67;4.27;;;6.90;99.90;;;;;;5012663;28;20479;-88
2023/12/31 07:17:12;;;;;;;5.37;4.50;;;7.00;99.90;;;;;;5012690;28;20463;-89
2023/12/31 07:19:41;;;;;;;5.20;4.70;;;6.90;99.90;;;;;;5012685;28;20962;-88
2023/12/31 07:22:10;;;;;;;7.00;5.30;;;7.00;99.90;;;;;;5012707;28;20958;-88
2023/12/31 07:24:41;;;;;;;8.27;6.77;;;7.00;99.90;;;;;;5013970;28;20462;-88
2023/12/31 07:27:09;;;;;;;6.53;5.83;;;7.00;99.90;;;;;;5013104;28;20546;-88
2023/12/31 07:29:38;;;;;;;6.40;5.80;;;7.00;99.90;;;;;;5012662;28;20474;-88
2023/12/31 07:32:06;;;;;;;7.07;6.00;;;7.00;99.90;;;;;;5012622;28;20454;-88
2023/12/31 07:34:35;;;;;;;6.13;4.90;;;7.00;99.90;;;;;;5012685;28;20487;-88
2023/12/31 07:37:04;;;;;;;6.10;4.10;;;7.00;99.90;;;;;;5012599;28;20462;-88
2023/12/31 07:39:33;;;;;;;5.27;4.77;;;7.00;99.90;;;;;;5012571;28;20556;-88
2023/12/31 07:42:03;;;;;;;5.30;4.70;;;7.00;99.90;;;;;;5012547;28;20460;-89
2023/12/31 07:44:32;;;;;;;6.13;5.50;;;7.00;99.90;;;;;;5012654;28;20530;-89
2023/12/31 07:47:03;;;;;;;6.67;4.93;;;7.10;99.90;;;;;;5012615;28;20451;-88
2023/12/31 07:49:33;;;;;;;7.17;6.47;;;7.10;99.90;;;;;;5016469;28;20454;-88
2023/12/31 07:52:01;;;;;;;6.93;6.23;;;7.10;99.90;;;;;;5016377;28;20542;-88
2023/12/31 07:54:29;;;;;;;5.97;4.80;;;7.10;99.90;;;;;;5016123;28;20525;-88
2023/12/31 07:57:00;;;;;;;5.50;5.07;;;7.10;99.90;;;;;;5016115;28;20475;-88
2023/12/31 07:59:28;;;;;;;5.37;4.47;;;7.10;99.90;;;;;;5016196;28;20442;-88
2023/12/31 08:01:57;;;;;;;5.50;5.00;;;7.10;99.90;;;;;;5016197;28;20811;-88
2023/12/31 08:04:25;;;;;;;6.13;5.20;;;7.10;99.90;;;;;;5016127;28;20578;-88
2023/12/31 08:06:54;;;;;;;7.00;5.43;;;7.20;99.90;;;;;;5015585;28;20515;-88
2023/12/31 08:09:23;;;;;;;6.57;5.00;;;7.20;99.90;;;;;;5015537;28;20525;-88
2023/12/31 08:11:52;;;;;;;5.53;4.90;;;7.20;99.90;;;;;;5015926;28;20449;-88
2023/12/31 08:14:22;;;;;;;6.40;5.27;;;7.20;99.90;;;;;;5015576;28;20479;-88
2023/12/31 08:16:51;;;;;;;6.87;5.10;;;7.20;99.90;;;;;;5015580;28;21002;-88
2023/12/31 08:19:19;;;;;;;5.80;4.73;;;7.20;99.90;;;;;;5015544;28;20849;-88
2023/12/31 08:21:49;;;;;;;6.10;5.20;;;7.20;99.90;;;;;;5016694;28;20501;-88
2023/12/31 08:24:20;;;;;;;5.63;5.03;;;7.30;99.90;;;;;;5015564;28;20580;-88
2023/12/31 08:26:48;;;;;;;5.73;5.13;;;7.30;99.90;;;;;;5017576;28;20520;-88
2023/12/31 08:29:17;;;;;;;5.33;4.93;;;7.30;99.90;;;;;;5017690;28;20497;-88
2023/12/31 08:31:52;;;;;;;6.63;4.90;;;7.30;99.90;;;;;;5017731;28;20957;-88
2023/12/31 08:34:21;;;;;;;5.17;4.60;;;7.30;99.90;;;;;;5018249;28;20841;-89
2023/12/31 08:36:49;;;;;;;5.23;4.60;;;7.30;99.90;;;;;;5019676;28;20478;-89
2023/12/31 08:39:18;;;;;;;5.20;4.70;;;7.30;99.90;;;;;;5020053;28;20968;-89
2023/12/31 08:41:46;;;;;;;5.50;4.50;;;7.40;99.90;;;;;;5017523;28;20977;-88
2023/12/31 08:44:14;;;;;;;5.37;4.87;;;7.40;99.90;;;;;;5017827;28;20486;-88
2023/12/31 08:46:42;;;;;;;7.20;6.50;;;7.40;99.90;;;;;;5017126;28;20856;-88
2023/12/31 08:49:12;;;;;;;14.63;11.40;;;7.40;99.90;;;;;;5018251;28;20472;-88
2023/12/31 08:51:40;;;;;;;9.27;8.30;;;7.40;99.90;;;;;;5016938;28;20496;-88
2023/12/31 08:54:10;;;;;;;5.10;4.17;;;7.40;99.90;;;;;;5018501;28;20472;-88
2023/12/31 08:56:39;;;;;;;5.00;4.40;;;7.40;99.90;;;;;;5014994;28;21027;-88
2023/12/31 08:59:08;;;;;;;5.00;4.50;;;7.50;99.90;;;;;;5014291;28;20830;-88
2023/12/31 09:01:36;;;;;;;4.63;4.23;;;7.50;99.90;;;;;;5014842;28;20463;-88
2023/12/31 09:04:04;;;;;;;4.53;4.03;;;7.50;99.90;;;;;;5014550;28;20493;-88
2023/12/31 09:06:34;;;;;;;4.40;3.53;;;7.50;99.90;;;;;;5015062;28;20447;-88
2023/12/31 09:09:04;;;;;;;5.70;3.70;;;7.60;99.90;;;;;;5014766;28;20466;-88
2023/12/31 09:11:34;;;;;;;4.33;3.60;;;7.60;99.90;;;;;;5014596;28;20440;-88
2023/12/31 09:14:02;;;;;;;3.63;3.23;;;7.60;99.90;;;;;;5014331;28;20500;-88
2023/12/31 09:16:31;;;;;;;4.43;4.00;;;7.60;99.90;;;;;;5014353;28;20512;-88
2023/12/31 09:18:59;;;;;;;3.50;3.10;;;7.70;99.90;;;;;;5014400;28;20506;-88
2023/12/31 09:21:27;;;;;;;4.73;3.57;;;7.70;99.90;;;;;;5014383;28;20462;-88
2023/12/31 09:23:57;;;;;;;3.40;3.10;;;7.70;99.90;;;;;;5014180;28;20478;-88
2023/12/31 09:26:25;;;;;;;7.57;6.40;;;7.70;99.90;;;;;;5014281;28;21009;-88
2023/12/31 09:28:54;;;;;;;3.00;2.70;;;7.80;99.90;;;;;;5015521;28;20941;-88
2023/12/31 09:31:25;;;;;;;3.43;2.63;;;7.80;99.90;;;;;;5014262;28;20478;-88
2023/12/31 09:33:53;;;;;;;3.23;2.93;;;7.90;99.90;;;;;;5014623;28;21004;-88
2023/12/31 09:36:22;;;;;;;4.00;2.60;;;7.90;99.90;;;;;;5014049;28;20455;-88
2023/12/31 09:38:51;;;;;;;2.73;2.50;;;8.00;99.90;;;;;;5014068;28;20526;-88
2023/12/31 09:41:24;;;;;;;2.40;2.20;;;8.00;99.90;;;;;;5014586;28;20510;-88
2023/12/31 09:43:54;;;;;;;2.93;2.50;;;8.00;99.90;;;;;;5014393;28;20526;-88
2023/12/31 09:46:24;;;;;;;4.00;2.50;;;8.00;99.90;;;;;;5014456;28;20550;-88
2023/12/31 09:48:54;;;;;;;2.70;2.40;;;8.10;99.90;;;;;;5017959;28;20451;-88
2023/12/31 09:51:23;;;;;;;3.60;2.63;;;8.10;99.90;;;;;;5014633;28;21039;-88
2023/12/31 09:53:53;;;;;;;2.87;2.57;;;8.20;99.90;;;;;;5014922;28;20471;-88
2023/12/31 09:56:24;;;;;;;2.60;2.40;;;8.20;99.90;;;;;;5016402;28;20925;-88
2023/12/31 09:58:53;;;;;;;3.20;2.80;;;8.20;99.90;;;;;;5014830;28;20444;-88
2023/12/31 10:01:37;;;;;;;2.93;2.73;;;8.30;99.90;;;;;;5014715;28;20494;-88
2023/12/31 10:04:05;;;;;;;3.30;3.00;;;8.30;99.90;;;;;;5014617;28;20496;-88
2023/12/31 10:06:38;;;;;;;4.23;3.10;;;8.40;99.90;;;;;;5014737;28;20453;-88
2023/12/31 10:09:08;;;;;;;4.00;3.60;;;8.30;99.90;;;;;;5014443;28;20463;-88
2023/12/31 10:11:39;;;;;;;3.50;2.53;;;8.40;99.90;;;;;;5014996;28;20499;-88
2023/12/31 10:14:07;;;;;;;4.20;2.70;;;8.40;99.90;;;;;;5014480;28;20471;-88
2023/12/31 10:16:40;;;;;;;3.43;2.80;;;8.40;99.90;;;;;;5015581;28;20873;-88
2023/12/31 10:19:09;;;;;;;3.70;3.40;;;8.50;99.90;;;;;;5015232;28;20444;-88
2023/12/31 10:21:37;;;;;;;3.40;3.00;;;8.50;99.90;;;;;;5014305;28;20548;-88
2023/12/31 10:24:06;;;;;;;5.53;4.97;;;8.60;99.90;;;;;;5014565;28;20563;-88
2023/12/31 10:26:34;;;;;;;5.77;3.20;;;8.60;99.90;;;;;;5014460;28;20440;-88
2023/12/31 10:29:04;;;;;;;2.83;2.63;;;8.70;99.90;;;;;;5014412;28;20452;-88
2023/12/31 10:31:33;;;;;;;4.90;2.70;;;8.70;99.90;;;;;;5014581;28;20881;-88
2023/12/31 10:34:15;;;;;;;2.73;2.20;;;8.70;99.90;;;;;;5014066;28;20570;-88
2023/12/31 10:36:46;;;;;;;3.10;2.80;;;8.80;99.90;;;;;;5014131;28;20540;-88
2023/12/31 10:39:26;;;;;;;3.40;2.60;;;8.90;99.90;;;;;;5015212;28;20435;-88
2023/12/31 10:41:58;;;;;;;2.70;2.50;;;8.90;99.90;;;;;;5013730;28;20975;-88
2023/12/31 10:44:28;;;;;;;3.20;2.80;;;8.90;99.90;;;;;;5013644;28;20472;-88
2023/12/31 10:46:59;;;;;;;3.63;3.00;;;9.00;99.90;;;;;;5013770;28;20510;-88
2023/12/31 10:49:30;;;;;;;3.53;3.23;;;9.00;99.90;;;;;;5013587;28;20950;-88
2023/12/31 10:52:02;;;;;;;4.40;3.57;;;9.10;99.90;;;;;;5013544;28;20463;-88
2023/12/31 10:54:40;;;;;;;3.63;3.27;;;9.10;99.90;;;;;;5015036;28;20480;-88
2023/12/31 10:57:10;;;;;;;3.93;2.83;;;9.20;99.90;;;;;;5014343;28;20493;-88
2023/12/31 10:59:42;;;;;;;2.90;2.57;;;9.20;99.90;;;;;;5014486;28;20458;-88
2023/12/31 11:02:16;;;;;;;3.40;2.70;;;9.30;99.90;;;;;;5013672;28;20447;-88
2023/12/31 11:04:45;;;;;;;3.43;2.47;;;9.30;99.90;;;;;;5014693;28;20476;-88
2023/12/31 11:07:16;;;;;;;2.80;2.60;;;9.30;99.90;;;;;;5014357;28;20487;-88
2023/12/31 11:09:46;;;;;;;3.27;2.77;;;9.40;99.90;;;;;;5016086;28;20452;-88
2023/12/31 11:12:15;;;;;;;3.13;2.83;;;9.40;99.90;;;;;;5013104;28;20472;-88
2023/12/31 11:14:48;;;;;;;3.43;2.60;;;9.40;99.90;;;;;;5013044;28;20529;-88
2023/12/31 11:17:48;;;;;;;3.00;2.80;;;9.40;99.90;;;;;;5013311;28;20442;-88
2023/12/31 11:20:39;;;;;;;2.90;2.60;;;9.40;99.90;;;;;;5013371;28;20448;-88
2023/12/31 11:23:17;;;;;;;3.33;2.93;;;9.40;99.90;;;;;;5015377;28;20518;-88
2023/12/31 11:25:46;;;;;;;3.70;3.40;;;9.50;99.90;;;;;;5019740;28;20443;-88
2023/12/31 11:28:14;;;;;;;4.17;3.77;;;9.50;99.90;;;;;;5020325;28;20455;-88
2023/12/31 11:30:49;;;;;;;5.30;4.50;;;9.50;99.90;;;;;;5018148;28;20574;-88
2023/12/31 11:33:19;;;;;;;6.03;4.87;;;9.50;99.90;;;;;;5019739;28;20471;-88
2023/12/31 11:35:49;;;;;;;3.40;2.80;;;9.50;99.90;;;;;;5021686;28;20498;-88
2023/12/31 11:38:18;;;;;;;3.77;3.17;;;9.60;99.90;;;;;;5019993;28;21008;-88
2023/12/31 11:40:48;;;;;;;3.70;3.00;;;9.60;99.90;;;;;;5018187;28;20452;-88
2023/12/31 11:43:19;;;;;;;2.83;2.37;;;9.60;99.90;;;;;;5017962;28;20522;-88
2023/12/31 11:45:51;;;;;;;2.77;2.40;;;9.60;99.90;;;;;;5018029;28;20448;-88
2023/12/31 11:48:22;;;;;;;2.97;2.67;;;9.70;99.90;;;;;;5017940;28;20447;-88
2023/12/31 11:50:51;;;;;;;2.83;2.40;;;9.70;99.90;;;;;;5018428;28;20464;-88
2023/12/31 11:53:22;;;;;;;2.30;2.10;;;9.70;99.90;;;;;;5018254;28;20521;-89
2023/12/31 11:55:53;;;;;;;3.10;2.80;;;9.70;99.90;;;;;;5018751;28;20965;-88
2023/12/31 11:58:22;;;;;;;2.73;2.33;;;9.70;99.90;;;;;;5017830;28;20447;-88
2023/12/31 12:00:52;;;;;;;3.47;2.80;;;9.70;99.90;;;;;;5016729;28;20911;-88
2023/12/31 12:03:21;;;;;;;2.70;2.50;;;9.70;99.90;;;;;;5016783;28;20474;-88
2023/12/31 12:05:50;;;;;;;3.07;2.77;;;9.70;99.90;;;;;;5017170;28;20541;-88
2023/12/31 12:08:20;;;;;;;3.20;2.90;;;9.80;99.90;;;;;;5017451;28;20460;-88
2023/12/31 12:10:49;;;;;;;3.40;3.10;;;9.80;99.90;;;;;;5017592;28;20459;-88
2023/12/31 12:13:17;;;;;;;3.70;2.73;;;9.80;99.90;;;;;;5018032;28;20474;-88
2023/12/31 12:15:46;;;;;;;3.47;3.17;;;9.80;99.90;;;;;;5018799;28;20507;-88
2023/12/31 12:18:18;;;;;;;4.13;3.73;;;9.90;99.90;;;;;;5017270;28;20550;-88
2023/12/31 12:20:47;;;;;;;3.40;3.10;;;9.90;99.90;;;;;;5017385;28;20960;-88
2023/12/31 12:23:18;;;;;;;3.47;3.17;;;9.90;99.90;;;;;;5017253;28;20917;-88
2023/12/31 12:25:46;;;;;;;3.37;3.07;;;9.90;99.90;;;;;;5016806;28;20456;-88
2023/12/31 12:28:15;;;;;;;4.30;3.43;;;9.90;99.90;;;;;;5016981;28;21004;-88
2023/12/31 12:30:44;;;;;;;3.40;3.10;;;10.00;99.90;;;;;;5016736;28;20452;-88
2023/12/31 12:33:13;;;;;;;3.70;3.37;;;10.00;99.90;;;;;;5016434;28;20533;-88
2023/12/31 12:35:45;;;;;;;4.27;3.03;;;10.00;99.90;;;;;;5016151;28;20503;-88
2023/12/31 12:38:14;;;;;;;3.50;3.20;;;10.00;99.90;;;;;;5016532;28;20551;-88
2023/12/31 12:40:42;;;;;;;5.03;3.60;;;10.10;99.90;;;;;;5016450;28;20447;-88
2023/12/31 12:43:14;;;;;;;5.30;4.20;;;10.10;99.90;;;;;;5015898;28;20901;-88
2023/12/31 12:45:43;;;;;;;3.50;3.20;;;10.20;99.90;;;;;;5016305;28;21035;-88
2023/12/31 12:48:11;;;;;;;3.67;3.37;;;10.20;99.90;;;;;;5016412;28;20456;-88
2023/12/31 12:50:42;;;;;;;6.57;5.23;;;10.20;99.90;;;;;;5016054;28;20447;-88
2023/12/31 12:53:12;;;;;;;4.60;3.53;;;10.30;99.90;;;;;;5015475;28;20489;-88
2023/12/31 12:55:40;;;;;;;3.37;3.07;;;10.30;99.90;;;;;;5016026;28;20452;-88
2023/12/31 12:58:08;;;;;;;4.40;4.00;;;10.40;99.90;;;;;;5015846;28;20514;-88
2023/12/31 13:00:37;;;;;;;3.80;3.50;;;10.40;99.90;;;;;;5015704;28;20452;-88
2023/12/31 13:03:06;;;;;;;3.50;3.20;;;10.40;99.90;;;;;;5015627;28;20526;-88
2023/12/31 13:05:34;;;;;;;4.97;4.57;;;10.40;99.90;;;;;;5016214;28;20479;-88